createdAt,value
2022-11-20T00:01:25.394Z,25.1
2022-11-20T00:07:03.539Z,25.1
2022-11-20T00:12:26.375Z,25.2
2022-11-20T00:18:04.264Z,25.3
2022-11-20T00:23:42.083Z,28.2
2022-11-20T00:29:20.253Z,25.3
2022-11-20T00:35:01.756Z,25.1
2022-11-20T00:40:24.478Z,25.3
2022-11-20T00:45:47.099Z,25
2022-11-20T00:50:52.626Z,26.7
2022-11-20T00:56:14.964Z,26.3
2022-11-20T01:01:24.099Z,25.2
2022-11-20T01:06:31.333Z,25.3
2022-11-20T01:11:54.407Z,25.3
2022-11-20T01:17:35.948Z,25.1
2022-11-20T01:23:12.930Z,27.6
2022-11-20T01:28:49.540Z,25.6
2022-11-20T01:34:12.456Z,25.2
2022-11-20T01:39:34.693Z,25.3
2022-11-20T01:44:25.535Z,25.3
2022-11-20T01:49:47.281Z,25.1
2022-11-20T01:55:08.967Z,27.9
2022-11-20T02:00:46.906Z,25.6
2022-11-20T02:05:38.211Z,25.3
2022-11-20T02:11:22.366Z,25.2
2022-11-20T02:16:44.430Z,25.3
2022-11-20T02:22:06.759Z,25.2
2022-11-20T02:27:43.676Z,27.9
2022-11-20T02:32:49.688Z,25.6
2022-11-20T02:38:26.727Z,25.3
2022-11-20T02:44:03.747Z,25.3
2022-11-20T02:49:25.100Z,25.3
2022-11-20T02:54:46.028Z,25.2
2022-11-20T03:00:22.425Z,27.9
2022-11-20T03:05:42.833Z,25.6
2022-11-20T03:11:04.856Z,25.3
2022-11-20T03:16:32.265Z,25.4
2022-11-20T03:21:38.257Z,25.3
2022-11-20T03:26:44.524Z,25
2022-11-20T03:32:27.328Z,26.8
2022-11-20T03:38:04.849Z,25.9
2022-11-20T03:43:26.619Z,25.4
2022-11-20T03:48:51.515Z,25.3
2022-11-20T03:54:14.244Z,25.3
2022-11-20T03:59:20.228Z,25.3
2022-11-20T04:04:27.384Z,26.1
2022-11-20T04:10:04.883Z,27.4
2022-11-20T04:15:42.012Z,25.6
2022-11-20T04:21:04.251Z,25.3
2022-11-20T04:26:47.396Z,25.3
2022-11-20T04:32:24.655Z,25.3
2022-11-20T04:37:30.409Z,25.6
2022-11-20T04:43:07.133Z,28.4
2022-11-20T04:48:44.948Z,25.7
2022-11-20T04:54:21.955Z,25.3
2022-11-20T04:59:30.606Z,25.3
2022-11-20T05:04:37.901Z,25.3
2022-11-20T05:10:15.360Z,24.9
2022-11-20T05:15:53.733Z,27.2
2022-11-20T05:21:17.519Z,25.9
2022-11-20T05:26:41.173Z,25.5
2022-11-20T05:32:18.838Z,25.3
2022-11-20T05:37:55.515Z,25.3
2022-11-20T05:43:35.285Z,25.3
2022-11-20T05:49:00.131Z,25
2022-11-20T05:54:39.184Z,24.6
2022-11-20T06:00:15.948Z,24.3
2022-11-20T06:05:52.993Z,23.9
2022-11-20T06:11:30.422Z,23.5
2022-11-20T06:16:52.635Z,23.2
2022-11-20T06:22:21.503Z,22.9
2022-11-20T06:27:58.407Z,23.7
2022-11-20T06:33:39.999Z,27.1
2022-11-20T06:39:21.744Z,24.9
2022-11-20T06:44:28.635Z,24.9
2022-11-20T06:50:06.038Z,24.9
2022-11-20T06:55:46.979Z,24.8
2022-11-20T07:01:30.128Z,24.6
2022-11-20T07:07:14.119Z,24.3
2022-11-20T07:12:51.285Z,23.9
2022-11-20T07:18:28.344Z,23.6
2022-11-20T07:24:12.302Z,23.3
2022-11-20T07:29:50.884Z,22.9
2022-11-20T07:35:30.021Z,22.7
2022-11-20T07:40:51.279Z,22.4
2022-11-20T07:45:57.851Z,22.2
2022-11-20T07:51:34.862Z,21.9
2022-11-20T07:57:13.204Z,21.8
2022-11-20T08:02:50.715Z,21.5
2022-11-20T08:08:14.263Z,21.3
2022-11-20T08:19:24.448Z,21
2022-11-20T08:24:46.906Z,20.8
2022-11-20T08:30:18.698Z,20.7
2022-11-20T08:35:59.691Z,20.6
2022-11-20T08:41:43.810Z,20.4
2022-11-20T08:47:21.746Z,20.3
2022-11-20T08:52:59.335Z,20.1
2022-11-20T08:59:02.282Z,20.1
2022-11-20T09:05:30.448Z,19.9
2022-11-20T09:11:30.139Z,19.8
2022-11-20T09:16:52.689Z,19.7
2022-11-20T09:22:34.103Z,19.6
2022-11-20T09:27:55.897Z,19.6
2022-11-20T09:33:18.250Z,19.5
2022-11-20T09:38:59.836Z,19.4
2022-11-20T09:44:41.554Z,19.4
2022-11-20T09:50:22.486Z,19.3
2022-11-20T09:56:00.392Z,19.2
2022-11-20T10:01:40.119Z,19.2
2022-11-20T10:07:47.836Z,19.1
2022-11-20T10:13:30.280Z,19
2022-11-20T10:19:11.729Z,19
2022-11-20T10:24:50.685Z,18.9
2022-11-20T10:30:36.487Z,18.9
2022-11-20T10:36:36.451Z,18.8
2022-11-20T10:42:14.568Z,18.8
2022-11-20T10:47:56.799Z,18.8
2022-11-20T11:04:10.483Z,18.6
2022-11-20T11:09:33.070Z,18.6
2022-11-20T11:14:55.732Z,18.6
2022-11-20T11:20:17.724Z,18.6
2022-11-20T11:26:09.110Z,18.5
2022-11-20T11:31:46.668Z,18.5
2022-11-20T11:37:30.465Z,18.5
2022-11-20T11:43:29.164Z,18.4
2022-11-20T11:49:08.543Z,18.4
2022-11-20T11:54:31.658Z,18.4
2022-11-20T11:59:28.618Z,18.4
2022-11-20T12:04:53.865Z,18.3
2022-11-20T12:10:47.819Z,18.3
2022-11-20T12:16:09.977Z,18.3
2022-11-20T12:21:32.696Z,18.3
2022-11-20T12:27:10.311Z,18.2
2022-11-20T12:32:47.851Z,18.2
2022-11-20T12:38:16.038Z,18.2
2022-11-20T12:43:23.014Z,18.1
2022-11-20T12:48:46.575Z,18.1
2022-11-20T12:54:50.829Z,18.1
2022-11-20T13:00:28.597Z,18.1
2022-11-20T13:06:08.135Z,18.1
2022-11-20T13:11:34.648Z,18.1
2022-11-20T13:17:12.432Z,18.1
2022-11-20T13:22:49.770Z,18.1
2022-11-20T13:28:32.388Z,18.1
2022-11-20T13:34:09.642Z,18
2022-11-20T13:39:47.505Z,18
2022-11-20T13:45:30.169Z,18
2022-11-20T13:51:09.646Z,18
2022-11-20T13:56:46.433Z,18
2022-11-20T14:02:25.972Z,17.9
2022-11-20T14:08:32.608Z,17.9
2022-11-20T14:14:10.171Z,17.9
2022-11-20T14:19:54.875Z,17.9
2022-11-20T14:25:17.092Z,17.9
2022-11-20T14:30:54.930Z,17.9
2022-11-20T14:36:32.299Z,17.9
2022-11-20T14:42:10.175Z,17.9
2022-11-20T14:47:47.973Z,17.9
2022-11-20T14:53:29.803Z,17.9
2022-11-20T14:58:51.578Z,17.9
2022-11-20T15:04:33.798Z,17.9
2022-11-20T15:09:56.153Z,17.9
2022-11-20T15:15:37.496Z,17.8
2022-11-20T15:20:59.300Z,17.8
2022-11-20T15:26:21.425Z,17.8
2022-11-20T15:31:59.345Z,17.8
2022-11-20T15:37:41.363Z,17.8
2022-11-20T15:43:18.445Z,17.8
2022-11-20T15:49:01.118Z,17.8
2022-11-20T15:53:52.527Z,17.8
2022-11-20T15:59:20.493Z,17.8
2022-11-20T16:05:05.518Z,17.8
2022-11-20T16:10:27.739Z,17.8
2022-11-20T16:15:50.783Z,17.8
2022-11-20T16:21:28.635Z,17.8
2022-11-20T16:27:08.339Z,17.8
2022-11-20T16:32:46.829Z,17.8
2022-11-20T16:38:08.749Z,17.8
2022-11-20T16:43:19.386Z,17.8
2022-11-20T16:49:02.448Z,17.8
2022-11-20T16:54:25.601Z,17.8
2022-11-20T16:59:47.667Z,17.8
2022-11-20T17:05:25.958Z,17.8
2022-11-20T17:11:04.178Z,17.8
2022-11-20T17:16:43.677Z,17.8
2022-11-20T17:22:23.745Z,17.8
2022-11-20T17:27:36.058Z,17.8
2022-11-20T17:33:18.893Z,17.8
2022-11-20T17:38:59.946Z,17.8
2022-11-20T17:44:26.680Z,17.8
2022-11-20T17:50:05.210Z,17.8
2022-11-20T17:55:44.253Z,17.8
2022-11-20T18:01:23.001Z,17.8
2022-11-20T18:07:08.105Z,17.8
2022-11-20T18:12:46.949Z,17.8
2022-11-20T18:18:25.773Z,17.8
2022-11-20T18:24:24.863Z,17.8
2022-11-20T18:29:56.028Z,17.8
2022-11-20T18:35:41.231Z,17.8
2022-11-20T18:41:03.831Z,17.8
2022-11-20T18:46:26.358Z,17.8
2022-11-20T18:51:48.806Z,17.8
2022-11-20T18:57:11.205Z,17.8
2022-11-20T19:02:59.475Z,17.8
2022-11-20T19:08:37.860Z,17.8
2022-11-20T19:14:02.274Z,17.8
2022-11-20T19:19:40.344Z,17.8
2022-11-20T19:24:47.076Z,17.8
2022-11-20T19:30:26.878Z,17.8
2022-11-20T19:36:11.302Z,17.8
2022-11-20T19:41:55.811Z,17.8
2022-11-20T19:47:19.193Z,17.8
2022-11-20T19:52:58.817Z,17.8
2022-11-20T19:58:37.131Z,17.8
2022-11-20T20:04:07.680Z,17.8
2022-11-20T20:09:45.877Z,17.8
2022-11-20T20:15:11.390Z,17.8
2022-11-20T20:20:34.122Z,17.8
2022-11-20T20:26:11.456Z,17.8
2022-11-20T20:31:33.891Z,19.6
2022-11-20T20:36:40.095Z,23.1
2022-11-20T20:41:47.021Z,25.4
2022-11-20T20:47:09.413Z,26.9
2022-11-20T20:52:47.547Z,23.6
2022-11-20T20:58:11.850Z,23.5
2022-11-20T21:03:35.322Z,24.3
2022-11-20T21:08:44.388Z,26.2
2022-11-20T21:14:22.472Z,24.7
2022-11-20T21:20:01.736Z,23.6
2022-11-20T21:25:39.580Z,23.9
2022-11-20T21:31:06.050Z,23.9
2022-11-20T21:36:28.362Z,24.1
2022-11-20T21:41:52.641Z,26.4
2022-11-20T21:48:06.124Z,24.3
2022-11-20T21:53:43.726Z,23.9
2022-11-20T21:59:07.660Z,24.1
2022-11-20T22:04:45.866Z,24.1
2022-11-20T22:10:23.568Z,23.9
2022-11-20T22:16:27.563Z,24.2
2022-11-20T22:21:50.108Z,26.9
2022-11-20T22:27:30.995Z,24.1
2022-11-20T22:32:52.242Z,24.1
2022-11-20T22:38:18.501Z,24.3
2022-11-20T22:43:44.526Z,24.2
2022-11-20T22:49:25.501Z,24
2022-11-20T22:55:02.378Z,23.6
2022-11-20T23:00:39.745Z,25.9
2022-11-20T23:06:16.764Z,24.9
2022-11-20T23:11:54.767Z,24.1
2022-11-20T23:17:32.848Z,24.3
2022-11-20T23:23:10.455Z,24.3
2022-11-20T23:28:52.248Z,24.1
2022-11-20T23:34:14.819Z,23.9
2022-11-20T23:39:52.085Z,24.2
2022-11-20T23:45:29.445Z,26.9
2022-11-20T23:51:06.903Z,24.3
2022-11-20T23:56:35.602Z,24.3
